Data for 12/30/2009

Time Sea-Level Adjusted Pressure Absolute Pressure Temperature Relative Humidity Dew Point   
(mb) (inHg) (mb) (inHg) (C) (F) (%) (C) (F)
00:05 1012 29.88 841 24.83 -8.6 16.6 76 -12 10.4
00:10 1012 29.88 841 24.83 -8.7 16.4 77 -12 10.5
00:15 1012 29.88 841 24.83 -8.5 16.7 75 -12.2 10
00:20 1012 29.88 841 24.83 -8.6 16.5 75 -12.2 10
00:25 1012 29.88 841 24.83 -8.8 16.2 77 -12.1 10.2
00:30 1012 29.88 841 24.83 -8.5 16.7 75 -12.1 10.2
00:35 1012 29.88 841 24.83 -8.4 17 76 -11.8 10.8
00:40 1012 29.88 841 24.83 -8.5 16.8 76 -12 10.4
00:45 1012 29.88 841 24.83 -8.5 16.8 74 -12.2 10
00:50 1012 29.88 841 24.83 -8.4 17 74 -12.3 9.9
00:55 1012 29.88 841 24.83 -8.6 16.6 75 -12.3 9.8
01:00 1012 29.88 841 24.83 -8.8 16.2 75 -12.5 9.5
01:05 1012 29.88 841 24.83 -8.7 16.4 75 -12.4 9.8
01:10 1012 29.88 841 24.83 -8.3 17.1 74 -12.1 10.2
01:15 1012 29.88 841 24.83 -7.9 17.8 73 -12 10.4
01:20 1012 29.88 841 24.83 -8.1 17.5 72 -12.2 10.1
01:25 1012 29.88 841 24.83 -8.4 17 73 -12.4 9.7
01:30 1012 29.88 841 24.83 -8.6 16.5 74 -12.4 9.6
01:35 1011 29.85 841 24.83 -8.5 16.7 73 -12.5 9.6
01:40 1011 29.85 841 24.83 -8.5 16.8 74 -12.4 9.7
01:45 1011 29.85 841 24.83 -8.5 16.6 74 -12.4 9.7
01:50 1011 29.85 841 24.83 -8.2 17.2 72 -12.4 9.6
01:55 1011 29.85 841 24.83 -8.4 16.8 75 -12.2 10.1
02:00 1012 29.88 841 24.83 -8.7 16.3 75 -12.3 9.8
02:05 1012 29.88 841 24.83 -9 15.7 77 -12.3 9.9
02:10 1011 29.85 841 24.83 -8.9 16 75 -12.5 9.4
02:15 1012 29.88 841 24.83 -8.3 17 72 -12.6 9.4
02:20 1012 29.88 841 24.83 -8.2 17.2 73 -12.3 9.8
02:25 1012 29.88 841 24.83 -8.3 17 72 -12.5 9.5
02:30 1012 29.88 841 24.83 -8.8 16.2 74 -12.6 9.3
02:35 1012 29.88 841 24.83 -8.9 16 72 -13 8.6
02:40 1012 29.88 841 24.83 -9.3 15.2 75 -13.1 8.5
02:45 1012 29.88 841 24.83 -9.1 15.6 73 -13.2 8.3
02:50 1012 29.88 841 24.83 -9 15.8 73 -13 8.6
02:55 1012 29.88 841 24.83 -9.2 15.5 73 -13.1 8.4
03:00 1012 29.88 841 24.83 -9.2 15.5 73 -13.1 8.4
03:05 1012 29.88 841 24.83 -9.1 15.6 73 -13.1 8.4
03:10 1011 29.85 841 24.83 -9.6 14.8 76 -13 8.6
03:15 1011 29.85 841 24.83 -9.4 15.2 75 -13 8.6
03:20 1011 29.85 841 24.83 -9.1 15.7 75 -12.8 8.9
03:25 1011 29.85 841 24.83 -9.1 15.6 74 -12.9 8.8
03:30 1011 29.85 841 24.83 -9 15.7 73 -13.1 8.5
03:35 1011 29.85 841 24.83 -9.1 15.5 73 -13.2 8.3
03:40 1011 29.85 841 24.83 -9.3 15.2 74 -13.2 8.3
03:45 1011 29.85 841 24.83 -8.9 16 72 -13.1 8.4
03:50 1011 29.85 841 24.83 -8.8 16.2 75 -12.5 9.5
03:55 1011 29.85 841 24.83 -8.7 16.4 74 -12.5 9.5
04:00 1011 29.85 841 24.83 -8.6 16.6 72 -12.8 9
04:05 1011 29.85 841 24.83 -8.6 16.5 72 -12.9 8.8
04:10 1011 29.85 841 24.83 -8.9 15.9 72 -13.1 8.5
04:15 1011 29.85 841 24.83 -9 15.8 72 -13.2 8.3
04:20 1011 29.85 840 24.81 -9.1 15.6 72 -13.2 8.2
04:25 1011 29.85 840 24.81 -9.2 15.4 73 -13.3 8.1
04:30 1011 29.85 840 24.81 -9.5 15 74 -13.3 8.1
04:35 1011 29.85 840 24.81 -9.6 14.7 74 -13.4 7.9
04:40 1011 29.85 840 24.81 -9.5 14.9 74 -13.3 8
04:45 1011 29.85 840 24.81 -9.4 15.1 74 -13.2 8.2
04:50 1011 29.85 840 24.81 -9.3 15.2 74 -13.1 8.3
04:55 1011 29.85 840 24.81 -9.2 15.4 73 -13.1 8.4
05:00 1011 29.85 840 24.81 -9.4 15.1 75 -13 8.5
05:05 1011 29.85 840 24.81 -9.7 14.5 76 -13.2 8.3
05:10 1011 29.85 840 24.81 -9.7 14.6 75 -13.2 8.2
05:15 1011 29.85 840 24.81 -9.8 14.4 76 -13.3 8.1
05:20 1011 29.85 840 24.81 -10 13.9 77 -13.4 8
05:25 1011 29.85 840 24.81 -10.2 13.7 78 -13.2 8.2
05:30 1011 29.85 840 24.81 -10 14.1 76 -13.5 7.7
05:35 1011 29.85 840 24.81 -10 14 75 -13.6 7.5
05:40 1011 29.85 840 24.81 -10 14 74 -13.7 7.3
05:45 1011 29.85 840 24.81 -10.2 13.7 76 -13.7 7.4
05:50 1011 29.85 840 24.81 -10.7 12.8 78 -13.9 7.1
05:55 1011 29.85 840 24.81 -10.6 13 77 -13.9 7
06:00 1011 29.85 840 24.81 -10.2 13.6 76 -13.7 7.3
06:05 1011 29.85 840 24.81 -10.2 13.7 75 -13.7 7.3
06:10 1011 29.85 840 24.81 -10.3 13.4 75 -14 6.9
06:15 1011 29.85 840 24.81 -10.8 12.5 77 -14.1 6.6
06:20 1011 29.85 840 24.81 -10.9 12.5 78 -14 6.8
06:25 1011 29.85 840 24.81 -10.7 12.7 77 -14 6.8
06:30 1011 29.85 841 24.83 -10.9 12.5 78 -14 6.7
06:35 1011 29.85 841 24.83 -10.9 12.4 78 -14 6.8
06:40 1011 29.85 841 24.83 -10.9 12.4 79 -13.9 7
06:45 1011 29.85 841 24.83 -10.8 12.6 80 -13.6 7.5
06:50 1011 29.85 841 24.83 -10 14.1 75 -13.5 7.7
06:55 1011 29.85 841 24.83 -10.3 13.4 77 -13.6 7.6
07:00 1011 29.85 841 24.83 -10.4 13.3 78 -13.6 7.6
07:05 1012 29.88 841 24.83 -9.8 14.4 75 -13.3 8
07:10 1012 29.88 841 24.83 -9.4 15.2 74 -13.2 8.3
07:15 1012 29.88 841 24.83 -9.6 14.7 76 -13 8.5
07:20 1012 29.88 841 24.83 -10.2 13.6 76 -13.6 7.5
07:25 1012 29.88 841 24.83 -10.9 12.5 79 -13.8 7.2
07:30 1012 29.88 841 24.83 -11.2 11.8 79 -14.1 6.6
07:35 1012 29.88 841 24.83 -11.3 11.6 80 -14.2 6.4
07:40 1012 29.88 841 24.83 -11.6 11.1 79 -14.5 5.9
07:45 1012 29.88 841 24.83 -11.9 10.6 82 -14.4 6
07:50 1012 29.88 841 24.83 -12.1 10.3 80 -14.8 5.4
07:55 1012 29.88 841 24.83 -12.4 9.7 84 -14.7 5.6
08:00 1012 29.88 841 24.83 -12.1 10.2 81 -14.7 5.6
08:05 1012 29.88 841 24.83 -11.7 11 79 -14.6 5.8
08:10 1012 29.88 841 24.83 -11.7 10.9 79 -14.7 5.6
08:15 1012 29.88 841 24.83 -12 10.4 80 -14.8 5.4
08:20 1012 29.88 841 24.83 -12.3 9.9 80 -15 5
08:25 1012 29.88 841 24.83 -12.2 10.1 81 -14.8 5.3
08:30 1012 29.88 841 24.83 -12 10.5 80 -14.7 5.5
08:35 1012 29.88 841 24.83 -12 10.4 80 -14.8 5.4
08:40 1012 29.88 841 24.83 -12.1 10.3 81 -14.7 5.6
08:45 1012 29.88 841 24.83 -11.9 10.5 81 -14.6 5.7
08:50 1012 29.88 841 24.83 -11.6 11.1 79 -14.5 5.9
08:55 1012 29.88 841 24.83 -11.4 11.4 79 -14.5 6
09:00 1012 29.88 841 24.83 -11.3 11.7 78 -14.4 6
09:05 1012 29.88 841 24.83 -11.2 11.9 77 -14.4 6
09:10 1012 29.88 841 24.83 -10.8 12.5 77 -14.2 6.5
09:15 1012 29.88 841 24.83 -10.4 13.2 75 -14.1 6.7
09:20 1012 29.88 841 24.83 -10.3 13.4 74 -14 6.7
09:25 1012 29.88 841 24.83 -10.3 13.5 73 -14.2 6.5
09:30 1012 29.88 841 24.83 -10.2 13.7 73 -14.1 6.5
09:35 1012 29.88 841 24.83 -9.8 14.3 71 -14.1 6.6
09:40 1012 29.88 841 24.83 -9.8 14.4 72 -14 6.9
09:45 1012 29.88 841 24.83 -9.8 14.3 71 -14.1 6.7
09:50 1012 29.88 841 24.83 -9.8 14.4 72 -14 6.9
09:55 1012 29.88 841 24.83 -9.5 14.9 71 -13.8 7.1
10:00 1012 29.88 841 24.83 -8.9 16.1 68 -13.7 7.3
10:05 1012 29.88 841 24.83 -8 17.6 66 -13.4 7.9
10:10 1012 29.88 842 24.86 -7.7 18.2 66 -13 8.7
10:15 1012 29.88 842 24.86 -7.2 19 64 -13 8.7
10:20 1012 29.88 842 24.86 -7.4 18.8 65 -12.8 8.9
10:25 1013 29.91 842 24.86 -7.4 18.7 65 -12.9 8.8
10:30 1013 29.91 842 24.86 -7.2 19 64 -12.8 8.9
10:35 1013 29.91 842 24.86 -7 19.4 64 -12.8 9
10:40 1013 29.91 842 24.86 -6.9 19.6 65 -12.5 9.5
10:45 1013 29.91 842 24.86 -7 19.4 65 -12.5 9.5
10:50 1013 29.91 842 24.86 -6.8 19.8 64 -12.6 9.3
10:55 1013 29.91 842 24.86 -6.6 20.2 63 -12.4 9.7
11:00 1013 29.91 842 24.86 -6.2 20.8 62 -12.5 9.6
11:05 1013 29.91 842 24.86 -6 21.2 61 -12.5 9.6
11:10 1013 29.91 842 24.86 -6.1 21.1 62 -12.3 9.9
11:15 1013 29.91 842 24.86 -5.6 21.9 60 -12.2 10
11:20 1013 29.91 842 24.86 -5.3 22.5 60 -11.9 10.6
11:25 1013 29.91 842 24.86 -5 22.9 59 -11.9 10.6
11:30 1013 29.91 842 24.86 -4.8 23.4 58 -11.9 10.5
11:35 1013 29.91 842 24.86 -4.8 23.3 59 -11.6 11.1
11:40 1013 29.91 842 24.86 -4.7 23.6 58 -11.7 10.9
11:45 1013 29.91 842 24.86 -4.5 23.9 58 -11.6 11.2
11:50 1013 29.91 842 24.86 -4.3 24.3 57 -11.6 11.1
11:55 1013 29.91 842 24.86 -4.3 24.3 57 -11.6 11.1
12:00 1013 29.91 842 24.86 -4.1 24.6 58 -11.2 11.8
12:05 1013 29.91 842 24.86 -3.8 25.1 56 -11.3 11.6
12:10 1013 29.91 842 24.86 -4 24.9 58 -11.1 12
12:15 1013 29.91 842 24.86 -4.2 24.4 58 -11.2 11.8
12:20 1013 29.91 842 24.86 -4.3 24.2 58 -11.5 11.3
12:25 1013 29.91 842 24.86 -4 24.9 56 -11.5 11.4
12:30 1013 29.91 842 24.86 -4 24.9 56 -11.6 11.2
12:35 1013 29.91 842 24.86 -3.8 25.1 55 -11.6 11.2
12:40 1013 29.91 842 24.86 -3.7 25.4 56 -11.3 11.6
12:45 1013 29.91 842 24.86 -3.8 25.2 56 -11.2 11.8
12:50 1013 29.91 842 24.86 -3.7 25.4 55 -11.5 11.4
12:55 1013 29.91 842 24.86 -3.6 25.5 55 -11.3 11.6
13:00 1013 29.91 842 24.86 -3.9 24.9 57 -11.2 11.8
13:05 1013 29.91 842 24.86 -3.4 25.8 55 -11.2 11.8
13:10 1013 29.91 842 24.86 -3.5 25.8 54 -11.4 11.5
13:15 1013 29.91 842 24.86 -3.3 26 56 -11 12.3
13:20 1013 29.91 842 24.86 -3.1 26.4 55 -11 12.1
13:25 1013 29.91 842 24.86 -3.4 25.9 58 -10.5 13.2
13:30 1013 29.91 842 24.86 -3.7 25.4 56 -11.1 12
13:35 1013 29.91 842 24.86 -3.8 25.2 57 -11 12.1
13:40 1013 29.91 842 24.86 -4.5 23.9 61 -11 12.1
13:45 1013 29.91 842 24.86 -4.7 23.6 61 -11.1 12
13:50 1013 29.91 842 24.86 -4.2 24.5 57 -11.4 11.5
13:55 1013 29.91 842 24.86 -3.6 25.5 56 -11.1 12
14:00 1013 29.91 842 24.86 -3.2 26.2 54 -11.2 11.8
14:05 1013 29.91 842 24.86 -2.9 26.8 53 -11.1 12
14:10 1013 29.91 842 24.86 -3.1 26.5 55 -10.9 12.4
14:15 1013 29.91 842 24.86 -2.6 27.3 53 -11 12.3
14:20 1013 29.91 842 24.86 -2.6 27.3 52 -11.2 11.8
14:25 1013 29.91 842 24.86 -2.9 26.9 54 -10.8 12.5
14:30 1013 29.91 842 24.86 -3.1 26.5 55 -10.8 12.6
14:35 1013 29.91 842 24.86 -3.1 26.4 56 -10.7 12.8
14:40 1013 29.91 843 24.89 -3.2 26.3 56 -10.7 12.7
14:45 1013 29.91 843 24.89 -3.1 26.3 56 -10.8 12.6
14:50 1013 29.91 843 24.89 -3.3 26.1 57 -10.8 12.6
14:55 1013 29.91 843 24.89 -3.4 25.8 57 -10.7 12.8
15:00 1014 29.94 843 24.89 -3.6 25.6 58 -10.7 12.7
15:05 1014 29.94 843 24.89 -3.6 25.4 58 -10.7 12.8
15:10 1014 29.94 843 24.89 -4.3 24.2 61 -10.8 12.6
15:15 1014 29.94 843 24.89 -4.7 23.5 62 -10.9 12.5
15:20 1014 29.94 843 24.89 -5.1 22.8 62 -11.4 11.5
15:25 1014 29.94 843 24.89 -5.3 22.4 63 -11.4 11.5
15:30 1014 29.94 843 24.89 -5.1 22.8 61 -11.6 11.2
15:35 1014 29.94 843 24.89 -4.9 23.1 62 -11.2 11.8
15:40 1014 29.94 843 24.89 -5.2 22.7 62 -11.3 11.6
15:45 1014 29.94 843 24.89 -4.9 23.1 59 -11.7 10.9
15:50 1014 29.94 843 24.89 -4.6 23.8 59 -11.5 11.4
15:55 1014 29.94 843 24.89 -4.4 24 57 -11.7 10.9
16:00 1014 29.94 843 24.89 -4.7 23.6 60 -11.4 11.5
16:05 1014 29.94 843 24.89 -5 22.9 61 -11.4 11.5
16:10 1014 29.94 843 24.89 -5.2 22.7 62 -11.4 11.5
16:15 1014 29.94 843 24.89 -5.3 22.5 63 -11.4 11.5
16:20 1014 29.94 843 24.89 -5.3 22.4 62 -11.6 11.2
16:25 1014 29.94 843 24.89 -5.3 22.5 62 -11.6 11.2
16:30 1014 29.94 843 24.89 -5.5 22 63 -11.5 11.2
16:35 1014 29.94 843 24.89 -5.8 21.5 66 -11.3 11.7
16:40 1014 29.94 843 24.89 -6.4 20.6 66 -11.8 10.8
16:45 1014 29.94 843 24.89 -6.2 20.8 67 -11.4 11.5
16:50 1014 29.94 844 24.92 -6.5 20.4 67 -11.6 11.2
16:55 1014 29.94 844 24.92 -6.7 20 68 -11.6 11.1
17:00 1014 29.94 844 24.92 -7.1 19.3 69 -11.8 10.7
17:05 1014 29.94 844 24.92 -6.9 19.6 67 -12 10.4
17:10 1015 29.97 844 24.92 -6.7 19.9 68 -11.7 11
17:15 1015 29.97 844 24.92 -6.7 20 67 -11.8 10.7
17:20 1015 29.97 844 24.92 -6.6 20 66 -11.9 10.6
17:25 1015 29.97 844 24.92 -6.3 20.6 66 -11.6 11.1
17:30 1015 29.97 844 24.92 -6.3 20.7 67 -11.5 11.3
17:35 1015 29.97 844 24.92 -6.2 20.9 67 -11.4 11.4
17:40 1015 29.97 844 24.92 -6.3 20.7 66 -11.6 11.2
17:45 1015 29.97 844 24.92 -6.9 19.5 71 -11.4 11.4
17:50 1015 29.97 844 24.92 -7.3 18.9 71 -11.6 11.1
17:55 1015 29.97 844 24.92 -6.9 19.6 70 -11.5 11.3
18:00 1015 29.97 844 24.92 -6.7 19.9 70 -11.4 11.5
18:05 1015 29.97 844 24.92 -6.8 19.8 71 -11.3 11.7
18:10 1015 29.97 844 24.92 -6.9 19.6 71 -11.4 11.6
18:15 1015 29.97 844 24.92 -7.1 19.3 70 -11.6 11.1
18:20 1015 29.97 844 24.92 -7.4 18.7 74 -11.3 11.7
18:25 1015 29.97 844 24.92 -7.3 18.9 73 -11.2 11.8
18:30 1015 29.97 844 24.92 -6.9 19.5 72 -11.1 12.1
18:35 1015 29.97 844 24.92 -7 19.4 73 -11 12.2
18:40 1015 29.97 844 24.92 -7 19.5 72 -11.2 11.9
18:45 1015 29.97 845 24.95 -6.8 19.8 71 -11.2 11.8
18:50 1015 29.97 845 24.95 -6.7 20 71 -11.1 12
18:55 1015 29.97 845 24.95 -6.7 20 71 -11.1 12.1
19:00 1016 30 845 24.95 -6.6 20.1 71 -11 12.2
19:05 1016 30 845 24.95 -6.6 20.1 72 -10.9 12.4
19:10 1016 30 845 24.95 -6.5 20.2 71 -10.9 12.3
19:15 1016 30 845 24.95 -6.6 20.1 73 -10.8 12.6
19:20 1016 30 845 24.95 -6.4 20.4 72 -10.7 12.7
19:25 1016 30 845 24.95 -6.1 21 70 -10.7 12.7
19:30 1016 30 845 24.95 -5.8 21.6 69 -10.6 13
19:35 1016 30 845 24.95 -5.7 21.8 70 -10.3 13.4
19:40 1016 30 845 24.95 -5.9 21.4 71 -10.2 13.6
19:45 1016 30 845 24.95 -6.1 21.1 72 -10.4 13.3
19:50 1016 30 845 24.95 -5.8 21.6 71 -10.2 13.7
19:55 1016 30 845 24.95 -5.8 21.6 73 -9.9 14.1
20:00 1016 30 845 24.95 -5.2 22.6 69 -10 14.1
20:05 1016 30 845 24.95 -4.6 23.7 67 -9.8 14.3
20:10 1016 30 845 24.95 -4.3 24.3 65 -9.9 14.1
20:15 1016 30 845 24.95 -4.4 24 67 -9.7 14.6
20:20 1016 30 845 24.95 -4.9 23.2 69 -9.8 14.4
20:25 1016 30 845 24.95 -5.1 22.9 70 -9.8 14.4
20:30 1016 30 845 24.95 -5.4 22.3 72 -9.7 14.6
20:35 1016 30 845 24.95 -5.6 21.9 72 -9.9 14.3
20:40 1016 30 845 24.95 -6.5 20.3 77 -10 14
20:45 1016 30 845 24.95 -6.5 20.3 74 -10.3 13.4
20:50 1016 30 845 24.95 -5.7 21.8 71 -10.2 13.7
20:55 1016 30 845 24.95 -5.1 22.8 69 -9.9 14.2
21:00 1016 30 845 24.95 -5 23 69 -9.9 14.2
21:05 1016 30 845 24.95 -4.8 23.3 68 -9.8 14.4
21:10 1016 30 845 24.95 -4.7 23.5 67 -9.9 14.2
21:15 1016 30 846 24.98 -4.5 23.9 66 -9.9 14.3
21:20 1016 30 846 24.98 -4 24.9 64 -9.8 14.3
21:25 1016 30 846 24.98 -3.6 25.5 64 -9.6 14.8
21:30 1016 30 846 24.98 -3.7 25.4 65 -9.4 15.1
21:35 1016 30 846 24.98 -3.6 25.6 64 -9.3 15.2
21:40 1016 30 846 24.98 -3.5 25.8 64 -9.3 15.3
21:45 1016 30 846 24.98 -3.5 25.7 65 -9.1 15.6
21:50 1016 30 846 24.98 -3.5 25.8 65 -9.2 15.4
21:55 1017 30.03 846 24.98 -3.3 26 65 -8.9 15.9
22:00 1017 30.03 846 24.98 -3.3 26.1 66 -8.9 16.1
22:05 1017 30.03 846 24.98 -3.4 25.9 67 -8.7 16.3
22:10 1017 30.03 846 24.98 -4.1 24.6 70 -8.8 16.1
22:15 1017 30.03 846 24.98 -4.5 23.8 70 -9.2 15.5
22:20 1017 30.03 846 24.98 -4.6 23.7 70 -9.3 15.2
22:25 1017 30.03 846 24.98 -4.6 23.7 70 -9.2 15.4
22:30 1017 30.03 846 24.98 -4.3 24.2 69 -9.2 15.5
22:35 1017 30.03 846 24.98 -3.9 25 67 -9.1 15.6
22:40 1017 30.03 846 24.98 -3.9 25 67 -9.1 15.7
22:45 1017 30.03 846 24.98 -4 24.9 67 -9.2 15.5
22:50 1017 30.03 846 24.98 -4 24.9 66 -9.3 15.2
22:55 1017 30.03 846 24.98 -3.5 25.6 65 -9.2 15.5
23:00 1017 30.03 846 24.98 -3.3 26 65 -9 15.8
23:05 1017 30.03 846 24.98 -3.2 26.2 64 -9.1 15.6
23:10 1017 30.03 846 24.98 -3.2 26.2 64 -9 15.8
23:15 1017 30.03 847 25.01 -3.2 26.2 65 -8.9 16
23:20 1017 30.03 847 25.01 -3.4 25.9 66 -8.9 16.1
23:25 1017 30.03 847 25.01 -3.6 25.5 67 -8.9 16
23:30 1017 30.03 847 25.01 -3.6 25.6 67 -8.9 15.9
23:35 1018 30.06 847 25.01 -3.5 25.6 67 -8.9 16
23:40 1018 30.06 847 25.01 -3.7 25.4 67 -8.9 16
23:45 1017 30.03 847 25.01 -3.7 25.3 69 -8.7 16.4
23:50 1017 30.03 847 25.01 -3.9 25 69 -8.8 16.2
23:55 1017 30.03 847 25.01 -4 24.8 70 -8.7 16.3
24:00 1018 30.06 847 25.01 -4.2 24.5 70 -8.8 16.2